Relevés horaires St-Hubert (Belgique)


Relevés horaires à St-Hubert - Samedi 28 Juill. 2018
Heure UTC1 Température [°C] Vent [km/h] Hum. [%] Pres.4 [hPa] Visi. [Km] Nébu. [octa] Préc.5 [mm] Cond.
2m. Res. Ros. Dir.2 Vit. Moy. Raf.3
23:00 13.0 13.0 7.1 NNO 0.0 0.0 0.0 67 1015.5(0.8/3h) 45 0/8 -- --
22:00 16.5 16.5 6.6 NNO 0.0 0.0 0.0 52 1014.7(1.6/3h) 45 0/8 -- --
21:00 15.7 15.7 7.2 NNO 0.0 0.0 0.0 57 1014.6(2.0/3h) 45 0/8 -- --
20:00 17.2 17.2 8.8 NNO 0.0 0.0 0.0 58 1013.7(2.1/3h) 45 0/8 -- --
19:00 20.4 20.4 11.0 NNO 0.0 0.0 0.0 55 1012(1.2/3h) 45 0/8 -- --
18:00 20.9 20.9 11.9 NNO 0.0 0.0 0.0 56 1011.3(0.7/3h) 45 0/8 0/12h
--
17:00 22.7 22.7 11.4 NNO 0.0 0.0 0.0 49 1010.2(0.1/3h) 30 0/8 -- --
16:00 22.8 22.8 11.2 NNO 0.0 0.0 0.0 48 1010.3(0.6/3h) 30 0/8 -- --
15:00 22.6 22.6 11.8 NNO 0.0 0.0 0.0 50 1010.2(1.1/3h) 40 0/8 -- --
14:00 23.7 23.7 12.5 NNO 0.0 0.0 0.0 49 1009.9(1.3/3h) 40 0/8 -- --
13:00 22.7 22.7 13.3 NNO 0.0 0.0 0.0 55 1009.6(0.8/3h) 35 0/8 -- --
12:00 23.2 23.2 12.8 NNO 0.0 0.0 0.0 52 1008.9(0.6/3h) 45 0/8 0/6h
--
11:00 22.0 22.0 14.1 NNO 0.0 0.0 0.0 61 1008.9(1.0/3h) 35 0/8 -- --
10:00 21.5 21.5 15.3 NNO 0.0 0.0 0.0 68 1009(1.3/3h) 30 0/8 -- --
09:00 19.6 19.6 15.9 NNO 0.0 0.0 0.0 79 1008.9(0.6/3h) 35 4/8 -- --
08:00 19.0 19.0 15.5 NNO 0.0 0.0 0.0 80 1008.4(0.2/3h) 30 0/8 -- Ciel clair
07:00 18.2 18.2 14.8 NNO 0.0 0.0 0.0 81 1008.3(1.3/3h) 35 0/8 -- --
06:00 16.8 16.8 14.5 NNO 0.0 13.0 18.5 86 1008.9(1.4/3h) 30 0/8 0/12h
--
05:00 17.6 17.6 13.9 SSO 3.7 5.6 7.4 79 1008.6(-0.1/3h) 45 0/8 -- --
04:00 18.5 18.5 13.7 ENE 5.6 7.4 9.3 74 1006.9(-2.8/3h) 45 0/8 -- --
03:00 18.7 18.7 13.9 ENE 7.4 13.0 18.5 74 1007(-1.9/3h) 45 0/8 -- --
02:00 19.5 19.5 13.6 NO 5.6 9.3 13.0 69 1008.3(-1.1/3h) 45 0/8 -- --
01:00 19.1 19.1 13.9 O 9.3 13.0 18.5 72 1009.7(0.5/3h) 35 0/8 -- --
00:00 19.0 19.0 13.6 ENE 5.6 11.1 16.7 71 1009(-0.5/3h) 40 0/8 0/6h
0/24h
--

1 Coordinated Universal Time. Actuellement il est 17:00 locale et 15:00 UTC.

2 Le vent souffle depuis la direction indiquée vers la direction oposée.

3 Les rafales max. sont disponible 40 min après l'heure du relevé.

4 Pour les stations d'altitude (plus de 600m) le géopotentiel du niveau le plus proche de la pression obligatoire est indiqué.

5 Les stations disposant d'un diffuseur peuvent indiquer "trace". Cela signifie que des précipitations ont touchés le sol mais que la quantité est inférieure à 0.1 mm.

Récapitulatif de la journée
Température [°C] Vent [km/h] Ensoleillement4 [h] Precipitations totale5 [mm] Pression [Hpa]
Min1 Max.2 Moy.3 Max. Min Max.
16.7 24.0 3 18.5 0 h 0 min 0 1006.9 1015.5

1 Température minimale relevée entre 18:00 UTC la veille et 18:00 UTC le jour donné.

2 Température maximale relevée entre 06:00 UTC le jour donné et 06:00 UTC le lendemain.

3 Vent moyen de la journée basé sur les relevés horaires.

4 Ensoleillement en heures relevé entre 06:00 UTC la veille et 06:00 UTC le jour donné.

5 Précipitations totales tombées entre 06:00 UTC la jour donné et 06:00 UTC le lendemain.

Graphiques horaires